Time;durP1;ratioP1;P1;durP2;ratioP2;P2;SDS_P1;SDS_P2;PMS_P1;PMS_P2;Temp;Humidity;BMP_temperature;BMP_pressure;BME280_temperature;BME280_humidity;BME280_pressure;Samples;Min_cycle;Max_cycle;Signal;HPM_P1;HPM_P2
2023/12/06 00:01:18;;;;;;;26.95;11.70;;;;;;;;;;4964878;28;20031;-65
2023/12/06 00:03:43;;;;;;;30.80;12.95;;;;;;;;;;4970838;28;20018;-65
2023/12/06 00:06:08;;;;;;;29.90;12.48;;;;;;;;;;4969096;28;20026;-65
2023/12/06 00:08:34;;;;;;;27.95;11.52;;;;;;;;;;4969555;28;20022;-64
2023/12/06 00:10:59;;;;;;;21.90;11.93;;;;;;;;;;4967580;28;20082;-64
2023/12/06 00:13:25;;;;;;;26.42;12.18;;;;;;;;;;4968995;28;20442;-65
2023/12/06 00:15:50;;;;;;;30.05;12.38;;;;;;;;;;4968933;28;20905;-65
2023/12/06 00:18:19;;;;;;;31.65;12.48;;;;;;;;;;4969556;28;20019;-65
2023/12/06 00:20:44;;;;;;;;;;;;;;;;;;4970010;28;20517;-65
2023/12/06 00:23:09;;;;;;;23.30;11.93;;;;;;;;;;4969181;28;20378;-65
2023/12/06 00:25:34;;;;;;;26.90;12.20;;;;;;;;;;4968634;28;20033;-65
2023/12/06 00:28:01;;;;;;;23.23;11.45;;;;;;;;;;4970293;28;20023;-64
2023/12/06 00:30:26;;;;;;;28.10;12.43;;;;;;;;;;4968615;28;20027;-63
2023/12/06 00:32:51;;;;;;;29.77;12.00;;;;;;;;;;4970051;28;20077;-66
2023/12/06 00:35:17;;;;;;;26.23;12.63;;;;;;;;;;4969498;28;20467;-63
2023/12/06 00:37:42;;;;;;;28.30;11.43;;;;;;;;;;4973371;28;20410;-65
2023/12/06 00:40:07;;;;;;;26.00;12.23;;;;;;;;;;4973833;28;20046;-66
2023/12/06 00:42:33;;;;;;;24.20;10.95;;;;;;;;;;4973590;28;20046;-66
2023/12/06 00:44:58;;;;;;;30.98;12.35;;;;;;;;;;4972970;28;20027;-65
2023/12/06 00:47:23;;;;;;;25.70;12.07;;;;;;;;;;4972557;28;20074;-66
2023/12/06 00:49:48;;;;;;;27.50;11.85;;;;;;;;;;4973637;28;20018;-64
2023/12/06 00:52:14;;;;;;;31.92;13.20;;;;;;;;;;4973771;28;20517;-66
2023/12/06 00:54:39;;;;;;;29.88;12.88;;;;;;;;;;4977043;28;20070;-65
2023/12/06 00:57:04;;;;;;;28.60;13.35;;;;;;;;;;4977498;28;20033;-65
2023/12/06 00:59:29;;;;;;;29.30;12.35;;;;;;;;;;4984866;28;20018;-64
2023/12/06 01:01:55;;;;;;;34.53;13.82;;;;;;;;;;4977237;28;20078;-65
2023/12/06 01:04:20;;;;;;;28.85;13.52;;;;;;;;;;4977254;28;20030;-66
2023/12/06 01:06:46;;;;;;;31.73;12.38;;;;;;;;;;4981055;28;20051;-65
2023/12/06 01:09:11;;;;;;;27.27;12.80;;;;;;;;;;4977510;28;20112;-63
2023/12/06 01:11:37;;;;;;;27.25;13.15;;;;;;;;;;4972627;28;20058;-65
2023/12/06 01:14:02;;;;;;;24.75;12.93;;;;;;;;;;4984119;28;20041;-65
2023/12/06 01:16:27;;;;;;;31.45;12.82;;;;;;;;;;4975934;28;20023;-66
2023/12/06 01:18:53;;;;;;;23.42;12.00;;;;;;;;;;4981483;28;20015;-65
2023/12/06 01:21:18;;;;;;;26.20;13.00;;;;;;;;;;4980487;28;20027;-65
2023/12/06 01:23:43;;;;;;;24.33;12.52;;;;;;;;;;4975318;28;20489;-65
2023/12/06 01:26:08;;;;;;;26.98;13.15;;;;;;;;;;4981623;28;20037;-65
2023/12/06 01:28:33;;;;;;;23.27;12.32;;;;;;;;;;4976476;28;20027;-65
2023/12/06 01:30:59;;;;;;;23.85;12.50;;;;;;;;;;4977793;28;20027;-66
2023/12/06 01:33:24;;;;;;;25.45;12.18;;;;;;;;;;4972488;28;20029;-65
2023/12/06 01:35:49;;;;;;;21.40;11.13;;;;;;;;;;4972132;28;20431;-65
2023/12/06 01:38:14;;;;;;;23.00;11.85;;;;;;;;;;4971774;28;20022;-65
2023/12/06 01:40:40;;;;;;;22.80;10.68;;;;;;;;;;4972542;28;20069;-65
2023/12/06 01:43:05;;;;;;;28.02;13.68;;;;;;;;;;4972362;28;20034;-65
2023/12/06 01:45:30;;;;;;;22.83;12.40;;;;;;;;;;4971593;28;20042;-64
2023/12/06 01:47:56;;;;;;;26.33;12.93;;;;;;;;;;4970063;28;20034;-65
2023/12/06 01:50:23;;;;;;;25.85;12.85;;;;;;;;;;4971917;28;20037;-65
2023/12/06 01:52:48;;;;;;;24.60;12.23;;;;;;;;;;4969511;28;20018;-64
2023/12/06 01:55:13;;;;;;;22.17;11.40;;;;;;;;;;4975519;28;20038;-64
2023/12/06 01:57:39;;;;;;;27.20;12.35;;;;;;;;;;4973050;28;20054;-65
2023/12/06 02:00:07;;;;;;;25.38;13.02;;;;;;;;;;4977409;28;20509;-65
2023/12/06 02:02:32;;;;;;;24.33;12.63;;;;;;;;;;4973603;28;20022;-65
2023/12/06 02:04:57;;;;;;;27.98;13.25;;;;;;;;;;4974468;28;20081;-65
2023/12/06 02:07:23;;;;;;;23.80;13.13;;;;;;;;;;4972110;28;20042;-65
2023/12/06 02:09:48;;;;;;;23.23;11.85;;;;;;;;;;4975594;28;20014;-64
2023/12/06 02:12:13;;;;;;;23.83;12.38;;;;;;;;;;4969520;28;20678;-65
2023/12/06 02:14:39;;;;;;;25.88;12.73;;;;;;;;;;4979185;28;20029;-65
2023/12/06 02:17:05;;;;;;;28.95;13.52;;;;;;;;;;4973498;28;20023;-65
2023/12/06 02:19:30;;;;;;;24.13;12.73;;;;;;;;;;4976001;28;20042;-64
2023/12/06 02:21:56;;;;;;;22.10;12.30;;;;;;;;;;4973250;28;20018;-65
2023/12/06 02:24:25;;;;;;;27.67;11.52;;;;;;;;;;4973493;28;20019;-66
2023/12/06 02:26:52;;;;;;;22.45;11.50;;;;;;;;;;4972417;28;20056;-63
2023/12/06 02:29:17;;;;;;;23.95;12.40;;;;;;;;;;4975372;28;20026;-65
2023/12/06 02:31:43;;;;;;;27.73;12.85;;;;;;;;;;4970824;28;20126;-65
2023/12/06 02:34:11;;;;;;;31.55;12.90;;;;;;;;;;4969644;28;20019;-64
2023/12/06 02:36:38;;;;;;;24.55;12.50;;;;;;;;;;4970827;28;20633;-64
2023/12/06 02:39:04;;;;;;;22.35;11.43;;;;;;;;;;4971302;28;20027;-65
2023/12/06 02:41:31;;;;;;;21.25;11.50;;;;;;;;;;4971274;28;20019;-65
2023/12/06 02:43:56;;;;;;;23.25;12.23;;;;;;;;;;4971240;28;20017;-65
2023/12/06 02:46:21;;;;;;;27.83;12.63;;;;;;;;;;4970567;28;20046;-65
2023/12/06 02:48:46;;;;;;;25.45;12.65;;;;;;;;;;4970951;28;20023;-65
2023/12/06 02:51:11;;;;;;;28.63;12.85;;;;;;;;;;4978353;28;20041;-64
2023/12/06 02:53:37;;;;;;;27.98;12.48;;;;;;;;;;4969622;28;20093;-66
2023/12/06 02:56:02;;;;;;;26.83;12.65;;;;;;;;;;4976176;28;20026;-65
2023/12/06 02:58:27;;;;;;;24.38;12.57;;;;;;;;;;4975882;28;20046;-66
2023/12/06 03:00:52;;;;;;;23.15;12.57;;;;;;;;;;4977062;28;20042;-65
2023/12/06 03:03:18;;;;;;;24.50;13.40;;;;;;;;;;4976328;28;20151;-64
2023/12/06 03:05:43;;;;;;;24.50;12.38;;;;;;;;;;4980431;28;20034;-66
2023/12/06 03:08:08;;;;;;;24.98;11.82;;;;;;;;;;4975133;28;20027;-65
2023/12/06 03:10:34;;;;;;;22.77;11.40;;;;;;;;;;4975093;28;20029;-65
2023/12/06 03:12:59;;;;;;;26.48;12.32;;;;;;;;;;4975232;28;20043;-65
2023/12/06 03:15:24;;;;;;;26.48;12.57;;;;;;;;;;4975724;28;20038;-65
2023/12/06 03:17:49;;;;;;;24.48;12.38;;;;;;;;;;4977384;28;20023;-64
2023/12/06 03:20:15;;;;;;;20.80;11.68;;;;;;;;;;4980089;28;20018;-64
2023/12/06 03:22:41;;;;;;;21.98;12.23;;;;;;;;;;4971016;28;20029;-64
2023/12/06 03:25:07;;;;;;;23.67;12.13;;;;;;;;;;4979526;28;20105;-64
2023/12/06 03:27:32;;;;;;;27.63;12.80;;;;;;;;;;4971225;28;20060;-65
2023/12/06 03:29:57;;;;;;;27.63;13.25;;;;;;;;;;4980683;28;20562;-64
2023/12/06 03:32:23;;;;;;;23.48;12.13;;;;;;;;;;4967754;28;20026;-64
2023/12/06 03:34:48;;;;;;;22.23;11.90;;;;;;;;;;4970489;28;20534;-64
2023/12/06 03:37:13;;;;;;;24.40;12.27;;;;;;;;;;4970911;28;20114;-64
2023/12/06 03:39:38;;;;;;;26.25;12.63;;;;;;;;;;4968472;28;20023;-63
2023/12/06 03:42:04;;;;;;;28.00;12.30;;;;;;;;;;4970502;28;20061;-64
2023/12/06 03:44:29;;;;;;;25.10;13.02;;;;;;;;;;4970659;28;20101;-64
2023/12/06 03:46:54;;;;;;;25.55;13.30;;;;;;;;;;4974219;28;20023;-65
2023/12/06 03:49:19;;;;;;;24.77;12.65;;;;;;;;;;4966691;28;20050;-64
2023/12/06 03:51:44;;;;;;;29.20;12.93;;;;;;;;;;4966508;28;20082;-66
2023/12/06 03:54:10;;;;;;;24.55;11.50;;;;;;;;;;4968759;28;20097;-65
2023/12/06 03:56:35;;;;;;;24.40;12.65;;;;;;;;;;4969420;28;20030;-66
2023/12/06 03:59:00;;;;;;;25.55;10.73;;;;;;;;;;4975720;28;20033;-65
2023/12/06 04:01:25;;;;;;;26.33;12.57;;;;;;;;;;4973977;28;20094;-65
2023/12/06 04:03:51;;;;;;;28.42;13.38;;;;;;;;;;4979222;28;20101;-65
2023/12/06 04:06:16;;;;;;;23.40;13.52;;;;;;;;;;4976613;28;20034;-64
2023/12/06 04:08:41;;;;;;;25.13;13.02;;;;;;;;;;4974697;28;20030;-65
2023/12/06 04:11:06;;;;;;;24.60;12.95;;;;;;;;;;4971742;28;20023;-65
2023/12/06 04:13:31;;;;;;;28.25;12.77;;;;;;;;;;4986304;28;20019;-64
2023/12/06 04:15:57;;;;;;;27.73;12.82;;;;;;;;;;4976729;28;20047;-65
2023/12/06 04:18:22;;;;;;;21.35;11.07;;;;;;;;;;4987356;28;20022;-63
2023/12/06 04:20:47;;;;;;;27.13;12.18;;;;;;;;;;4974890;28;20442;-65
2023/12/06 04:23:12;;;;;;;29.17;12.60;;;;;;;;;;4967293;28;20035;-62
2023/12/06 04:25:37;;;;;;;26.13;11.25;;;;;;;;;;4978024;28;20011;-64
2023/12/06 04:28:03;;;;;;;27.00;12.23;;;;;;;;;;4971279;28;20115;-65
2023/12/06 04:30:28;;;;;;;21.60;11.77;;;;;;;;;;4970949;28;20509;-65
2023/12/06 04:32:53;;;;;;;25.95;12.27;;;;;;;;;;4967359;28;20509;-65
2023/12/06 04:35:18;;;;;;;23.58;11.60;;;;;;;;;;4973706;28;20106;-66
2023/12/06 04:37:44;;;;;;;25.35;11.95;;;;;;;;;;4979693;28;20023;-64
2023/12/06 04:40:09;;;;;;;25.50;11.85;;;;;;;;;;4972676;28;20424;-65
2023/12/06 04:42:34;;;;;;;21.65;11.13;;;;;;;;;;4973152;28;20382;-65
2023/12/06 04:44:59;;;;;;;23.77;11.70;;;;;;;;;;4972642;28;20015;-65
2023/12/06 04:47:25;;;;;;;28.02;13.15;;;;;;;;;;4972657;28;20059;-66
2023/12/06 04:49:50;;;;;;;20.25;11.23;;;;;;;;;;4969587;28;20082;-66
2023/12/06 04:52:15;;;;;;;23.83;11.32;;;;;;;;;;4968772;28;20023;-65
2023/12/06 04:54:40;;;;;;;25.92;11.20;;;;;;;;;;4972506;28;20482;-64
2023/12/06 04:57:05;;;;;;;23.08;10.95;;;;;;;;;;4976206;28;20498;-64
2023/12/06 04:59:31;;;;;;;24.02;10.73;;;;;;;;;;4980442;28;20022;-64
2023/12/06 05:01:56;;;;;;;23.00;11.10;;;;;;;;;;4980438;28;20022;-66
2023/12/06 05:04:22;;;;;;;19.77;9.55;;;;;;;;;;4975277;28;20035;-65
2023/12/06 05:06:47;;;;;;;24.90;11.75;;;;;;;;;;4979963;28;20094;-64
2023/12/06 05:09:13;;;;;;;21.77;10.98;;;;;;;;;;4976557;28;20590;-62
2023/12/06 05:11:38;;;;;;;18.92;10.50;;;;;;;;;;4974585;28;20039;-65
2023/12/06 05:14:03;;;;;;;23.05;11.18;;;;;;;;;;4977743;28;20018;-65
2023/12/06 05:16:28;;;;;;;27.63;12.20;;;;;;;;;;4972769;28;20557;-64
2023/12/06 05:18:54;;;;;;;20.10;10.75;;;;;;;;;;4971604;28;20026;-65
2023/12/06 05:21:19;;;;;;;19.35;10.55;;;;;;;;;;4979349;28;20022;-65
2023/12/06 05:23:44;;;;;;;20.63;10.57;;;;;;;;;;4970744;28;20046;-65
2023/12/06 05:26:09;;;;;;;23.65;11.00;;;;;;;;;;4977002;28;20090;-65
2023/12/06 05:28:35;;;;;;;21.60;10.05;;;;;;;;;;4972408;28;20485;-65
2023/12/06 05:31:00;;;;;;;21.88;9.80;;;;;;;;;;4975492;28;20026;-67
2023/12/06 05:33:27;;;;;;;22.50;11.23;;;;;;;;;;4968638;28;20022;-66
2023/12/06 05:35:52;;;;;;;18.98;8.95;;;;;;;;;;4970268;28;20026;-65
2023/12/06 05:38:17;;;;;;;19.38;10.27;;;;;;;;;;4973838;28;20047;-64
2023/12/06 05:40:42;;;;;;;18.08;9.48;;;;;;;;;;4966973;28;20626;-65
2023/12/06 05:43:08;;;;;;;17.67;9.98;;;;;;;;;;4967593;28;20027;-66
2023/12/06 05:45:33;;;;;;;20.90;9.32;;;;;;;;;;4971778;28;20037;-62
2023/12/06 05:47:58;;;;;;;24.23;10.27;;;;;;;;;;4964660;28;20011;-64
2023/12/06 05:50:24;;;;;;;20.08;10.27;;;;;;;;;;4969545;28;20086;-64
2023/12/06 05:52:49;;;;;;;19.67;9.45;;;;;;;;;;4971841;28;20678;-64
2023/12/06 05:55:16;;;;;;;19.70;10.55;;;;;;;;;;4970907;28;20030;-64
2023/12/06 05:57:41;;;;;;;18.50;9.55;;;;;;;;;;4969693;28;20047;-65
2023/12/06 06:00:12;;;;;;;19.50;9.15;;;;;;;;;;4969184;28;20120;-64
2023/12/06 06:02:37;;;;;;;18.00;9.48;;;;;;;;;;4976759;28;20483;-65
2023/12/06 06:05:02;;;;;;;17.77;9.90;;;;;;;;;;4967642;28;20022;-65
2023/12/06 06:07:28;;;;;;;24.50;9.88;;;;;;;;;;4970891;28;20055;-64
2023/12/06 06:09:53;;;;;;;14.68;7.60;;;;;;;;;;4969662;28;20105;-64
2023/12/06 06:12:18;;;;;;;16.15;9.15;;;;;;;;;;4966380;28;20122;-65
2023/12/06 06:14:44;;;;;;;20.88;10.77;;;;;;;;;;4971035;28;20019;-64
2023/12/06 06:17:09;;;;;;;20.13;9.23;;;;;;;;;;4978074;28;20023;-65
2023/12/06 06:19:34;;;;;;;22.67;10.77;;;;;;;;;;4969052;28;20475;-63
2023/12/06 06:21:59;;;;;;;22.58;10.50;;;;;;;;;;4973062;28;20105;-65
2023/12/06 06:24:25;;;;;;;19.08;9.80;;;;;;;;;;4963169;28;20068;-64
2023/12/06 06:26:50;;;;;;;18.25;9.70;;;;;;;;;;4964203;28;20046;-64
2023/12/06 06:29:15;;;;;;;18.95;10.02;;;;;;;;;;4970542;28;20038;-65
2023/12/06 06:31:40;;;;;;;20.88;8.90;;;;;;;;;;4968062;28;20041;-64
2023/12/06 06:34:05;;;;;;;22.05;10.02;;;;;;;;;;4972237;28;20413;-64
2023/12/06 06:36:31;;;;;;;24.20;10.55;;;;;;;;;;4971280;28;20448;-65
2023/12/06 06:38:57;;;;;;;22.92;11.25;;;;;;;;;;4972357;28;20447;-65
2023/12/06 06:41:24;;;;;;;20.60;11.13;;;;;;;;;;4971306;28;20391;-66
2023/12/06 06:43:49;;;;;;;23.80;11.20;;;;;;;;;;4970070;28;20038;-61
2023/12/06 06:46:15;;;;;;;21.08;10.00;;;;;;;;;;4973441;28;20093;-64
2023/12/06 06:48:40;;;;;;;24.13;11.30;;;;;;;;;;4967619;28;20030;-63
2023/12/06 06:51:05;;;;;;;23.73;11.40;;;;;;;;;;4970930;28;20022;-65
2023/12/06 06:53:31;;;;;;;24.23;11.25;;;;;;;;;;4970240;28;20443;-65
2023/12/06 06:55:56;;;;;;;26.98;12.43;;;;;;;;;;4969655;28;20019;-65
2023/12/06 06:58:21;;;;;;;20.88;10.90;;;;;;;;;;4970348;28;20459;-65
2023/12/06 07:00:46;;;;;;;21.70;9.93;;;;;;;;;;4972069;28;20029;-64
2023/12/06 07:03:12;;;;;;;16.35;8.60;;;;;;;;;;4974770;28;20114;-62
2023/12/06 07:05:37;;;;;;;26.00;9.77;;;;;;;;;;4970957;28;20019;-65
2023/12/06 07:08:02;;;;;;;21.35;9.30;;;;;;;;;;4971459;28;20089;-65
2023/12/06 07:10:28;;;;;;;20.02;9.85;;;;;;;;;;4971398;28;20109;-65
2023/12/06 07:12:53;;;;;;;21.52;8.88;;;;;;;;;;4966752;28;20023;-63
2023/12/06 07:15:19;;;;;;;20.50;10.10;;;;;;;;;;4969612;28;20113;-65
2023/12/06 07:17:45;;;;;;;14.60;8.00;;;;;;;;;;4970991;28;20486;-65
2023/12/06 07:20:11;;;;;;;20.88;9.25;;;;;;;;;;4970215;28;20022;-62
2023/12/06 07:22:37;;;;;;;18.20;8.68;;;;;;;;;;4969905;28;20430;-65
2023/12/06 07:25:02;;;;;;;16.33;7.85;;;;;;;;;;4969544;28;20086;-65
2023/12/06 07:27:28;;;;;;;15.85;8.48;;;;;;;;;;4973064;28;20133;-66
2023/12/06 07:29:53;;;;;;;19.77;8.70;;;;;;;;;;4977516;28;20050;-66
2023/12/06 07:32:18;;;;;;;15.18;7.88;;;;;;;;;;4973177;28;20062;-67
2023/12/06 07:34:43;;;;;;;13.70;7.65;;;;;;;;;;4970395;28;20207;-65
2023/12/06 07:37:09;;;;;;;15.48;7.68;;;;;;;;;;4970874;28;20698;-65
2023/12/06 07:39:34;;;;;;;15.82;7.90;;;;;;;;;;4968944;28;20506;-64
2023/12/06 07:41:59;;;;;;;15.15;7.13;;;;;;;;;;4969456;28;20014;-66
2023/12/06 07:44:24;;;;;;;13.27;6.90;;;;;;;;;;4968810;28;20026;-64
2023/12/06 07:46:49;;;;;;;16.40;6.88;;;;;;;;;;4970937;28;20122;-66
2023/12/06 07:49:15;;;;;;;14.82;7.10;;;;;;;;;;4965887;28;20053;-63
2023/12/06 07:51:41;;;;;;;16.98;6.93;;;;;;;;;;4969478;28;20391;-61
2023/12/06 07:54:07;;;;;;;17.65;7.68;;;;;;;;;;4969353;28;20435;-65
2023/12/06 07:56:33;;;;;;;11.05;5.88;;;;;;;;;;4968929;28;20015;-66
2023/12/06 07:58:58;;;;;;;15.63;6.20;;;;;;;;;;4964407;28;20090;-65
2023/12/06 08:01:24;;;;;;;12.40;6.63;;;;;;;;;;4969192;28;20679;-65
2023/12/06 08:03:49;;;;;;;10.52;5.38;;;;;;;;;;4970780;28;20034;-64
2023/12/06 08:06:15;;;;;;;11.60;5.50;;;;;;;;;;4970147;28;20627;-63
2023/12/06 08:08:40;;;;;;;14.35;5.35;;;;;;;;;;4969142;28;20026;-65
2023/12/06 08:11:06;;;;;;;12.25;4.43;;;;;;;;;;4970914;28;20027;-65
2023/12/06 08:13:31;;;;;;;8.15;4.28;;;;;;;;;;4969083;28;20078;-65
2023/12/06 08:15:56;;;;;;;7.80;4.13;;;;;;;;;;4968475;28;20387;-64
2023/12/06 08:18:21;;;;;;;7.05;3.20;;;;;;;;;;4970706;28;20382;-66
2023/12/06 08:20:46;;;;;;;7.20;3.85;;;;;;;;;;4969910;28;20018;-67
2023/12/06 08:23:12;;;;;;;9.35;4.18;;;;;;;;;;4969447;28;20052;-64
2023/12/06 08:25:37;;;;;;;7.40;3.95;;;;;;;;;;4969508;28;20015;-64
2023/12/06 08:28:02;;;;;;;7.53;3.72;;;;;;;;;;4969315;28;20031;-64
2023/12/06 08:30:28;;;;;;;7.32;3.60;;;;;;;;;;4970227;28;20023;-64
2023/12/06 08:32:53;;;;;;;8.52;4.00;;;;;;;;;;4965470;28;20046;-64
2023/12/06 08:35:19;;;;;;;8.00;4.35;;;;;;;;;;4969234;28;20101;-64
2023/12/06 08:37:45;;;;;;;10.48;3.92;;;;;;;;;;4969966;28;20049;-66
2023/12/06 08:40:12;;;;;;;9.95;5.07;;;;;;;;;;4973459;28;20050;-64
2023/12/06 08:42:37;;;;;;;9.80;4.22;;;;;;;;;;4977509;28;20434;-64
2023/12/06 08:45:03;;;;;;;9.20;4.20;;;;;;;;;;4974461;28;20118;-64
2023/12/06 08:47:28;;;;;;;8.65;4.28;;;;;;;;;;4978727;28;20030;-65
2023/12/06 08:49:53;;;;;;;7.28;3.95;;;;;;;;;;4971908;28;20022;-65
2023/12/06 08:52:18;;;;;;;6.28;3.28;;;;;;;;;;4971844;28;20073;-62
2023/12/06 08:54:43;;;;;;;8.40;3.40;;;;;;;;;;4975315;28;20023;-63
2023/12/06 08:57:09;;;;;;;5.55;2.85;;;;;;;;;;4974271;28;20061;-64
2023/12/06 08:59:34;;;;;;;5.03;2.50;;;;;;;;;;4980577;28;20114;-64
2023/12/06 09:02:00;;;;;;;5.15;2.90;;;;;;;;;;4974939;28;20041;-64
2023/12/06 09:04:25;;;;;;;6.88;3.45;;;;;;;;;;4980166;28;20049;-63
2023/12/06 09:06:50;;;;;;;5.60;2.83;;;;;;;;;;4978617;28;20051;-62
2023/12/06 09:09:17;;;;;;;5.85;2.92;;;;;;;;;;4977375;28;20022;-64
2023/12/06 09:11:45;;;;;;;5.22;2.65;;;;;;;;;;4977523;28;20125;-65
2023/12/06 09:14:10;;;;;;;9.25;2.63;;;;;;;;;;4979382;28;20057;-63
2023/12/06 09:16:36;;;;;;;5.28;2.80;;;;;;;;;;4978359;28;20098;-64
2023/12/06 09:19:01;;;;;;;5.20;2.30;;;;;;;;;;4981596;28;20029;-64
2023/12/06 09:21:27;;;;;;;6.53;2.50;;;;;;;;;;4980610;28;20029;-64
2023/12/06 09:23:52;;;;;;;3.25;1.67;;;;;;;;;;4975074;28;20021;-65
2023/12/06 09:26:19;;;;;;;5.75;1.90;;;;;;;;;;4978914;28;20447;-65
2023/12/06 09:28:44;;;;;;;5.22;2.10;;;;;;;;;;4977593;28;20019;-64
2023/12/06 09:31:10;;;;;;;3.97;1.80;;;;;;;;;;4975281;28;20103;-65
2023/12/06 09:33:35;;;;;;;3.67;1.88;;;;;;;;;;4969160;28;20018;-65
2023/12/06 09:36:00;;;;;;;4.90;1.80;;;;;;;;;;4971361;28;20086;-65
2023/12/06 09:38:25;;;;;;;3.20;1.73;;;;;;;;;;4972728;28;20106;-64
2023/12/06 09:40:50;;;;;;;2.78;1.30;;;;;;;;;;4975006;28;20650;-65
2023/12/06 09:43:17;;;;;;;3.15;1.70;;;;;;;;;;4976065;28;20034;-64
2023/12/06 09:45:42;;;;;;;4.45;2.17;;;;;;;;;;4978690;28;20015;-64
2023/12/06 09:48:08;;;;;;;4.47;1.73;;;;;;;;;;4974260;28;20102;-64
2023/12/06 09:50:33;;;;;;;4.13;1.90;;;;;;;;;;4978345;28;20029;-63
2023/12/06 09:52:59;;;;;;;5.97;2.33;;;;;;;;;;4975150;28;20110;-63
2023/12/06 09:55:24;;;;;;;5.28;2.47;;;;;;;;;;4980583;28;20018;-64
2023/12/06 09:57:52;;;;;;;6.80;2.78;;;;;;;;;;4975150;28;20035;-65
2023/12/06 10:00:17;;;;;;;8.23;2.47;;;;;;;;;;4982063;28;20069;-65
2023/12/06 10:02:53;;;;;;;7.03;2.80;;;;;;;;;;4977553;28;20027;-66
2023/12/06 10:05:18;;;;;;;6.20;2.90;;;;;;;;;;4980724;28;20027;-64
2023/12/06 10:07:44;;;;;;;6.70;2.33;;;;;;;;;;4978598;28;20023;-65
2023/12/06 10:10:16;;;;;;;5.90;2.70;;;;;;;;;;4980035;28;20027;-63
2023/12/06 10:12:48;;;;;;;5.88;3.38;;;;;;;;;;4969391;28;20105;-65
2023/12/06 10:15:14;;;;;;;6.80;3.13;;;;;;;;;;4975756;28;20037;-64
2023/12/06 10:17:40;;;;;;;7.82;3.30;;;;;;;;;;4977087;28;20050;-65
2023/12/06 10:20:06;;;;;;;4.88;2.55;;;;;;;;;;4979511;28;20398;-64
2023/12/06 10:22:33;;;;;;;6.97;3.90;;;;;;;;;;4975439;28;20015;-66
2023/12/06 10:24:59;;;;;;;10.50;3.42;;;;;;;;;;4972178;28;20029;-63
2023/12/06 10:27:24;;;;;;;9.80;4.18;;;;;;;;;;4975241;28;20039;-64
2023/12/06 10:29:52;;;;;;;9.15;3.50;;;;;;;;;;4980410;28;20034;-65
2023/12/06 10:32:18;;;;;;;7.72;3.45;;;;;;;;;;4976381;28;20109;-65
2023/12/06 10:34:44;;;;;;;6.53;3.53;;;;;;;;;;4971254;28;20023;-64
2023/12/06 10:37:11;;;;;;;5.47;3.05;;;;;;;;;;4970676;28;20036;-64
2023/12/06 10:39:37;;;;;;;5.78;3.10;;;;;;;;;;4970168;28;20023;-64
2023/12/06 10:42:07;;;;;;;5.57;2.58;;;;;;;;;;4968148;28;20048;-64
2023/12/06 10:44:33;;;;;;;8.95;3.20;;;;;;;;;;4970108;28;20026;-64
2023/12/06 10:46:59;;;;;;;5.85;3.45;;;;;;;;;;4970731;28;20439;-64
2023/12/06 10:49:26;;;;;;;6.13;3.13;;;;;;;;;;4972685;28;20026;-64
2023/12/06 10:51:52;;;;;;;5.43;3.05;;;;;;;;;;4970634;28;20030;-64
2023/12/06 10:54:17;;;;;;;5.88;2.92;;;;;;;;;;4970526;28;20019;-65
2023/12/06 10:56:43;;;;;;;6.38;3.00;;;;;;;;;;4970950;28;20446;-63
2023/12/06 10:59:10;;;;;;;5.32;3.05;;;;;;;;;;4981141;28;20027;-64
2023/12/06 11:01:35;;;;;;;7.82;3.08;;;;;;;;;;4973410;28;20102;-64
2023/12/06 11:04:01;;;;;;;7.00;3.47;;;;;;;;;;4976079;28;20093;-65
2023/12/06 11:06:43;;;;;;;5.43;2.75;;;;;;;;;;4974866;28;20418;-63
2023/12/06 11:09:08;;;;;;;7.10;3.22;;;;;;;;;;4976480;28;20026;-65
2023/12/06 11:11:41;;;;;;;6.70;3.58;;;;;;;;;;4972321;28;20277;-65
2023/12/06 11:14:06;;;;;;;7.00;3.97;;;;;;;;;;4977020;28;20114;-64
2023/12/06 11:16:32;;;;;;;6.43;3.45;;;;;;;;;;4974760;28;20109;-66
2023/12/06 11:18:58;;;;;;;9.15;3.60;;;;;;;;;;4974116;28;20023;-64
2023/12/06 11:21:24;;;;;;;8.90;3.63;;;;;;;;;;4979357;28;20031;-65
2023/12/06 11:23:50;;;;;;;8.32;4.10;;;;;;;;;;4974499;28;20045;-65
2023/12/06 11:26:16;;;;;;;8.55;3.40;;;;;;;;;;4979610;28;20124;-63
2023/12/06 11:28:41;;;;;;;6.60;3.55;;;;;;;;;;4976791;28;20106;-65
2023/12/06 11:31:13;;;;;;;8.65;3.80;;;;;;;;;;4971583;28;20037;-68
2023/12/06 11:33:38;;;;;;;6.88;3.75;;;;;;;;;;4977760;28;20053;-64
2023/12/06 11:36:04;;;;;;;7.03;3.63;;;;;;;;;;4969401;28;20023;-66
2023/12/06 11:38:35;;;;;;;8.02;3.63;;;;;;;;;;4971414;28;20398;-65
2023/12/06 11:41:01;;;;;;;7.13;3.50;;;;;;;;;;4970771;28;20015;-65
2023/12/06 11:43:31;;;;;;;5.97;3.30;;;;;;;;;;4970515;28;20026;-64
2023/12/06 11:46:03;;;;;;;5.85;3.33;;;;;;;;;;4979359;28;20014;-64
2023/12/06 11:48:29;;;;;;;7.18;3.88;;;;;;;;;;4977361;28;20031;-65
2023/12/06 11:50:59;;;;;;;6.28;3.55;;;;;;;;;;4976893;28;20173;-65
2023/12/06 11:53:26;;;;;;;7.88;4.05;;;;;;;;;;4972566;28;20028;-65
2023/12/06 11:55:51;;;;;;;6.97;3.60;;;;;;;;;;4978028;28;20019;-65
2023/12/06 11:58:17;;;;;;;12.52;4.30;;;;;;;;;;4974984;28;20545;-64
2023/12/06 12:00:43;;;;;;;9.98;4.32;;;;;;;;;;4980847;28;20078;-65
2023/12/06 12:03:11;;;;;;;10.02;3.80;;;;;;;;;;4980157;28;20030;-65
2023/12/06 12:05:37;;;;;;;7.72;3.95;;;;;;;;;;4973139;28;20391;-64
2023/12/06 12:08:03;;;;;;;8.70;4.15;;;;;;;;;;4977593;28;20034;-65
2023/12/06 12:10:28;;;;;;;7.70;4.20;;;;;;;;;;4976655;28;20026;-64
2023/12/06 12:12:54;;;;;;;9.43;3.90;;;;;;;;;;4971130;28;20015;-65
2023/12/06 12:15:19;;;;;;;9.10;4.07;;;;;;;;;;4979032;28;20038;-65
2023/12/06 12:17:44;;;;;;;7.07;3.50;;;;;;;;;;4969883;28;20019;-65
2023/12/06 12:20:11;;;;;;;9.40;4.18;;;;;;;;;;4975661;28;20409;-65
2023/12/06 12:23:02;;;;;;;9.70;4.60;;;;;;;;;;4971041;28;21101;-64
2023/12/06 12:25:27;;;;;;;11.55;4.50;;;;;;;;;;4962576;28;20039;-66
2023/12/06 12:27:53;;;;;;;7.97;3.97;;;;;;;;;;4968798;28;20026;-63
2023/12/06 12:30:18;;;;;;;7.15;3.88;;;;;;;;;;4972758;28;20030;-64
2023/12/06 12:32:48;;;;;;;9.93;4.93;;;;;;;;;;4968233;28;20019;-66
2023/12/06 12:35:13;;;;;;;8.60;4.68;;;;;;;;;;4970227;28;20049;-65
2023/12/06 12:37:39;;;;;;;14.52;4.47;;;;;;;;;;4973837;28;20046;-65
2023/12/06 12:40:09;;;;;;;12.60;5.88;;;;;;;;;;4973353;28;20077;-65
2023/12/06 12:42:39;;;;;;;10.40;5.70;;;;;;;;;;4973031;28;20018;-64
2023/12/06 12:45:05;;;;;;;12.68;5.40;;;;;;;;;;4966141;28;20030;-65
2023/12/06 12:47:30;;;;;;;12.68;5.95;;;;;;;;;;4978991;28;20030;-64
2023/12/06 12:49:56;;;;;;;12.65;6.13;;;;;;;;;;4974295;28;20027;-64
2023/12/06 12:52:21;;;;;;;12.18;6.63;;;;;;;;;;4974734;28;20033;-65
2023/12/06 12:54:46;;;;;;;12.48;6.10;;;;;;;;;;4978723;28;20011;-64
2023/12/06 12:57:12;;;;;;;15.07;6.53;;;;;;;;;;4979035;28;20023;-64
2023/12/06 12:59:40;;;;;;;11.10;6.03;;;;;;;;;;4977689;28;20022;-66
2023/12/06 13:02:05;;;;;;;13.93;5.93;;;;;;;;;;4979413;28;20070;-64
2023/12/06 13:04:31;;;;;;;12.35;6.07;;;;;;;;;;4975398;28;20617;-63
2023/12/06 13:06:56;;;;;;;13.90;7.13;;;;;;;;;;4981249;28;20536;-66
2023/12/06 13:09:22;;;;;;;14.30;6.93;;;;;;;;;;4975801;28;20027;-64
2023/12/06 13:11:47;;;;;;;11.82;6.90;;;;;;;;;;4976606;28;20015;-65
2023/12/06 13:14:12;;;;;;;15.30;7.30;;;;;;;;;;4984902;28;20378;-64
2023/12/06 13:16:37;;;;;;;16.92;7.15;;;;;;;;;;4979261;28;20026;-64
2023/12/06 13:19:03;;;;;;;13.10;6.50;;;;;;;;;;4976892;28;20507;-66
2023/12/06 13:21:31;;;;;;;15.10;7.28;;;;;;;;;;4978889;28;20022;-64
2023/12/06 13:23:57;;;;;;;14.95;6.55;;;;;;;;;;4976760;28;20506;-64
2023/12/06 13:26:22;;;;;;;11.45;5.75;;;;;;;;;;4980295;28;20065;-65
2023/12/06 13:28:47;;;;;;;12.38;6.45;;;;;;;;;;4978677;28;20027;-65
2023/12/06 13:31:12;;;;;;;11.45;5.75;;;;;;;;;;4973887;28;20045;-65
2023/12/06 13:33:38;;;;;;;13.48;6.78;;;;;;;;;;4963818;28;20011;-64
2023/12/06 13:36:03;;;;;;;11.10;6.00;;;;;;;;;;4971032;28;20023;-64
2023/12/06 13:38:28;;;;;;;8.85;4.32;;;;;;;;;;4971112;28;20053;-64
2023/12/06 13:40:54;;;;;;;9.38;4.60;;;;;;;;;;4971417;28;20022;-65
2023/12/06 13:43:19;;;;;;;9.30;4.38;;;;;;;;;;4963207;28;20098;-63
2023/12/06 13:45:44;;;;;;;8.98;4.40;;;;;;;;;;4978163;28;20134;-64
2023/12/06 13:48:09;;;;;;;6.63;3.78;;;;;;;;;;4976769;28;20102;-65
2023/12/06 13:50:34;;;;;;;7.55;4.32;;;;;;;;;;4977828;28;20034;-64
2023/12/06 13:53:00;;;;;;;7.50;4.60;;;;;;;;;;4970407;28;20386;-65
2023/12/06 13:55:25;;;;;;;9.38;4.15;;;;;;;;;;4979347;28;20023;-65
2023/12/06 13:57:51;;;;;;;7.50;4.18;;;;;;;;;;4976445;28;20018;-62
2023/12/06 14:00:17;;;;;;;6.53;3.65;;;;;;;;;;4977712;28;20048;-64
2023/12/06 14:02:42;;;;;;;7.70;3.72;;;;;;;;;;4976999;28;20490;-66
2023/12/06 14:05:08;;;;;;;6.32;3.65;;;;;;;;;;4976114;28;20061;-64
2023/12/06 14:07:33;;;;;;;6.55;3.55;;;;;;;;;;4979489;28;20109;-65
2023/12/06 14:09:58;;;;;;;7.63;3.97;;;;;;;;;;4976734;28;20027;-64
2023/12/06 14:12:24;;;;;;;6.18;3.85;;;;;;;;;;4974309;28;20030;-63
2023/12/06 14:14:49;;;;;;;7.60;4.40;;;;;;;;;;4977649;28;20082;-64
2023/12/06 14:17:14;;;;;;;9.55;4.47;;;;;;;;;;4972283;28;20034;-63
2023/12/06 14:19:40;;;;;;;6.20;3.20;;;;;;;;;;4970040;28;20073;-63